Archival Weather

Longyear

Longyear, Svalbard (ENSB)

Report from: Wednesday, December 6, 2023 8:50 PM UTC
Current time: Saturday, March 2, 2024 8:54 AM UTC

Current weather – Weather history – Daily summaries
Weather forecast

Temperature-4.0°C (24.8°F)
Wind chill-12.4°C (9.6°F)
Dew point-9.0°C (15.8°F)
Winds 20 kts (10.3 m/s, 23 mph) East-Southeast (120°)
Visibility6.2 mi. (10 km)
Clouds Few clouds 2,000 ft. (610 m)
Ceiling: Broken clouds 15,000 ft. (4,572 m)
Altimeter30.50 in.Hg (1033 mB)
Relative humidity68 %
Density altitude-2,964 ft. (-903 m)
Flight conditions Visual Meteorological Conditions
Raw dataENSB 062050Z 12020KT 9999 FEW020 BKN150 M04/M09 Q1033 RMK WIND 1400FT 11027KT
An error has occurred. This application may no longer respond until reloaded. Reload 🗙